Time;durP1;ratioP1;P1;durP2;ratioP2;P2;SDS_P1;SDS_P2;PMS_P1;PMS_P2;Temp;Humidity;BMP_temperature;BMP_pressure;BME280_temperature;BME280_humidity;BME280_pressure;Samples;Min_cycle;Max_cycle;Signal;HPM_P1;HPM_P2
2022/11/20 00:00:37;;;;;;;20.02;14.07;;;;;;;-3.40;100.00;101277.28;5010310;28;20045;-60
2022/11/20 00:03:02;;;;;;;20.80;14.95;;;;;;;-3.65;100.00;101231.06;5010410;28;20115;-61
2022/11/20 00:05:28;;;;;;;19.55;14.13;;;;;;;-3.29;100.00;101300.78;5010498;28;20048;-62
2022/11/20 00:07:53;;;;;;;20.10;15.23;;;;;;;-3.72;100.00;101235.13;5010176;28;20442;-61
2022/11/20 00:10:18;;;;;;;17.90;13.65;;;;;;;-3.79;100.00;101230.59;5010123;28;20034;-61
2022/11/20 00:12:43;;;;;;;21.33;15.07;;;;;;;-3.40;100.00;101300.44;5009693;28;20034;-62
2022/11/20 00:15:09;;;;;;;19.48;13.52;;;;;;;-3.76;100.00;101234.97;5008651;28;20034;-62
2022/11/20 00:17:35;;;;;;;21.63;13.30;;;;;;;-3.36;100.00;101310.03;5010165;28;20046;-62
2022/11/20 00:20:00;;;;;;;21.70;14.55;;;;;;;-3.44;100.00;101293.44;5010146;28;20125;-61
2022/11/20 00:22:25;;;;;;;22.92;15.55;;;;;;;-3.39;100.00;101304.78;5025325;28;20042;-61
2022/11/20 00:24:51;;;;;;;21.13;14.60;;;;;;;-3.43;100.00;101300.34;5009965;28;20512;-61
2022/11/20 00:27:16;;;;;;;21.17;14.02;;;;;;;-3.80;100.00;101225.44;5009821;28;20121;-60
2022/11/20 00:29:41;;;;;;;21.23;13.93;;;;;;;-3.44;100.00;101285.72;5009626;28;20491;-60
2022/11/20 00:32:07;;;;;;;20.70;14.38;;;;;;;-3.50;100.00;101276.13;5009758;28;20177;-61
2022/11/20 00:34:32;;;;;;;21.92;14.35;;;;;;;-3.49;100.00;101288.19;5009563;28;20075;-61
2022/11/20 00:36:57;;;;;;;21.40;15.40;;;;;;;-3.53;100.00;101280.28;5009765;28;20038;-61
2022/11/20 00:39:22;;;;;;;19.27;14.57;;;;;;;-3.55;100.00;101287.09;5009705;28;20390;-61
2022/11/20 00:41:48;;;;;;;19.23;14.23;;;;;;;-3.56;100.00;101288.78;5009971;28;20094;-61
2022/11/20 00:44:13;;;;;;;20.02;14.45;;;;;;;-3.55;100.00;101279.38;5009696;28;20085;-61
2022/11/20 00:46:38;;;;;;;24.45;15.32;;;;;;;-3.57;100.00;101276.78;5008315;28;20038;-61
2022/11/20 00:49:03;;;;;;;23.67;14.80;;;;;;;-3.63;100.00;101265.41;5008985;28;20103;-60
2022/11/20 00:51:29;;;;;;;23.02;14.82;;;;;;;-3.60;100.00;101274.09;5009398;28;20397;-61
2022/11/20 00:53:56;;;;;;;21.33;14.90;;;;;;;-3.97;100.00;101221.47;5009543;28;20076;-60
2022/11/20 00:56:22;;;;;;;23.42;15.32;;;;;;;-3.62;100.00;101272.31;5008413;28;20034;-62
2022/11/20 00:58:48;;;;;;;23.92;15.25;;;;;;;-3.63;100.00;101280.84;5009383;28;20546;-61
2022/11/20 01:01:16;;;;;;;22.15;15.80;;;;;;;-3.63;100.00;101274.00;5009423;28;20034;-61
2022/11/20 01:03:44;;;;;;;22.40;14.77;;;;;;;-4.15;100.00;101186.63;5009584;28;20151;-62
2022/11/20 01:06:21;;;;;;;22.38;14.95;;;;;;;-3.91;100.00;101231.94;5007818;28;20339;-61
2022/11/20 01:08:47;;;;;;;21.05;14.02;;;;;;;-4.06;100.00;101206.63;5007881;28;20064;-61
2022/11/20 01:11:17;;;;;;;20.88;14.18;;;;;;;-3.73;100.00;101283.94;5009285;28;20038;-53
2022/11/20 01:13:44;;;;;;;20.23;13.80;;;;;;;-3.75;100.00;101268.47;5007831;28;20038;-57
2022/11/20 01:16:26;;;;;;;22.15;14.77;;;;;;;-4.06;100.00;101222.03;5009031;28;20102;-56
2022/11/20 01:18:54;;;;;;;19.70;13.55;;;;;;;-4.12;100.00;101203.84;5008453;28;20037;-57
2022/11/20 01:21:25;;;;;;;25.50;16.13;;;;;;;-4.14;100.00;101192.63;5007222;28;20371;-58
2022/11/20 01:23:51;;;;;;;20.30;14.73;;;;;;;-3.76;100.00;101265.84;5008793;28;20116;-54
2022/11/20 01:26:19;;;;;;;22.83;15.10;;;;;;;-4.11;100.00;101208.13;5008882;28;20482;-57
2022/11/20 01:28:45;;;;;;;22.80;16.60;;;;;;;-3.80;100.00;101261.44;5009023;28;20069;-56
2022/11/20 01:31:22;;;;;;;25.27;17.13;;;;;;;-4.32;100.00;101176.63;5007608;28;20070;-57
2022/11/20 01:33:49;;;;;;;27.88;16.90;;;;;;;-4.09;100.00;101209.09;5008904;28;20442;-57
2022/11/20 01:36:16;;;;;;;27.77;17.10;;;;;;;-4.24;100.00;101188.91;5011194;28;20072;-56
2022/11/20 01:38:42;;;;;;;24.02;15.52;;;;;;;-4.31;100.00;101179.22;4993946;28;20447;-56
2022/11/20 01:41:08;;;;;;;24.58;15.30;;;;;;;-3.82;100.00;101256.22;4991437;28;20038;-57
2022/11/20 01:43:34;;;;;;;24.63;15.57;;;;;;;-3.99;100.00;101231.66;5008384;28;20049;-55
2022/11/20 01:46:04;;;;;;;24.70;16.30;;;;;;;-4.14;100.00;101195.19;5007417;28;20394;-59
2022/11/20 01:48:36;;;;;;;23.25;15.05;;;;;;;-4.20;100.00;101197.56;5008401;28;20254;-59
2022/11/20 01:51:03;;;;;;;20.95;14.43;;;;;;;-3.87;100.00;101252.66;5007817;28;20034;-58
2022/11/20 01:53:32;;;;;;;23.38;15.55;;;;;;;-3.90;100.00;101254.25;5005416;28;20026;-57
2022/11/20 01:55:59;;;;;;;22.83;15.60;;;;;;;-3.95;100.00;101237.78;5006829;28;20041;-55
2022/11/20 01:58:33;;;;;;;21.00;14.73;;;;;;;-4.34;100.00;101173.09;5008593;28;20052;-58
2022/11/20 02:00:59;;;;;;;25.35;15.88;;;;;;;-4.08;100.00;101224.53;5008294;28;20034;-56
2022/11/20 02:03:24;;;;;;;21.48;15.52;;;;;;;-3.95;100.00;101243.81;5010492;28;20075;-54
2022/11/20 02:06:04;;;;;;;25.58;15.48;;;;;;;-3.95;100.00;101258.38;5010597;28;20042;-53
2022/11/20 02:08:30;;;;;;;23.85;16.15;;;;;;;-4.10;100.00;101241.63;5010605;28;20117;-56
2022/11/20 02:10:55;;;;;;;23.55;15.38;;;;;;;-4.08;100.00;101249.38;5010455;28;20081;-55
2022/11/20 02:16:08;;;;;;;22.38;15.02;;;;;;;-4.41;100.00;101190.03;5010768;28;20448;-54
2022/11/20 02:18:34;;;;;;;23.08;15.65;;;;;;;-4.03;100.00;101258.97;4991605;28;20050;-59
2022/11/20 02:21:06;;;;;;;24.67;15.93;;;;;;;-4.43;100.00;101189.09;4991956;28;20041;-59
2022/11/20 02:23:38;;;;;;;27.52;17.17;;;;;;;-4.09;100.00;101258.81;5007050;28;20109;-53
2022/11/20 02:26:06;;;;;;;22.52;15.98;;;;;;;-4.05;100.00;101262.31;5011457;28;20071;-54
2022/11/20 02:28:31;;;;;;;24.75;16.23;;;;;;;-4.05;100.00;101260.63;5006613;28;20117;-56
2022/11/20 02:30:57;;;;;;;24.77;15.93;;;;;;;-4.16;100.00;101232.84;4990437;28;20129;-56
2022/11/20 02:33:22;;;;;;;24.17;16.30;;;;;;;-4.51;100.00;101182.84;5010392;28;20046;-55
2022/11/20 02:35:47;;;;;;;25.55;16.05;;;;;;;-4.09;100.00;101247.66;5011567;28;20037;-57
2022/11/20 02:38:13;;;;;;;24.70;16.33;;;;;;;-4.53;100.00;101157.94;5011461;28;20034;-55
2022/11/20 02:40:39;;;;;;;25.88;16.23;;;;;;;-4.10;100.00;101238.16;4998020;28;20035;-57
2022/11/20 02:43:04;;;;;;;27.95;16.90;;;;;;;-4.43;100.00;101186.53;4991526;28;20038;-59
2022/11/20 02:45:29;;;;;;;25.42;17.15;;;;;;;-4.13;100.00;101244.09;4991489;28;20436;-56
2022/11/20 02:47:55;;;;;;;27.65;17.52;;;;;;;-4.61;100.00;101153.41;5000575;28;20070;-56
2022/11/20 02:50:20;;;;;;;25.80;17.35;;;;;;;-4.16;100.00;101225.13;4999410;28;20038;-56
2022/11/20 02:52:46;;;;;;;26.30;16.38;;;;;;;-4.53;100.00;101160.50;4990395;28;20035;-56
2022/11/20 02:55:11;;;;;;;26.20;17.33;;;;;;;-4.20;100.00;101228.41;4991565;28;20190;-57
2022/11/20 02:57:37;;;;;;;28.67;16.80;;;;;;;-4.29;100.00;101205.84;4973947;28;20038;-58
2022/11/20 03:00:03;;;;;;;24.33;15.98;;;;;;;-4.55;100.00;101160.44;4989986;28;20042;-58
2022/11/20 03:02:31;;;;;;;24.92;16.48;;;;;;;-4.27;100.00;101193.94;4991617;28;20427;-57
2022/11/20 03:04:57;;;;;;;26.15;16.00;;;;;;;-4.29;100.00;101198.13;4991607;28;20483;-54
2022/11/20 03:07:22;;;;;;;23.52;16.15;;;;;;;-4.19;100.00;101212.16;4990162;28;20041;-54
2022/11/20 03:09:47;;;;;;;28.02;16.13;;;;;;;-4.18;100.00;101206.22;4991472;28;20026;-58
2022/11/20 03:12:13;;;;;;;23.65;16.83;;;;;;;-4.25;100.00;101192.28;4991161;28;20467;-56
2022/11/20 03:14:38;;;;;;;26.85;17.77;;;;;;;-4.22;100.00;101189.81;5002712;28;20046;-58
2022/11/20 03:17:04;;;;;;;26.20;15.90;;;;;;;-4.20;100.00;101195.88;5010478;28;20034;-52
2022/11/20 03:19:29;;;;;;;26.05;16.38;;;;;;;-4.27;100.00;101181.09;5004814;28;20038;-54
2022/11/20 03:21:54;;;;;;;27.48;16.88;;;;;;;-4.30;100.00;101188.69;4991259;28;20096;-59
2022/11/20 03:24:20;;;;;;;26.40;17.20;;;;;;;-4.29;100.00;101194.72;4990849;28;20038;-56
2022/11/20 03:26:45;;;;;;;26.58;16.33;;;;;;;-4.69;100.00;101113.75;4991045;28;20041;-53
2022/11/20 03:29:10;;;;;;;28.10;17.35;;;;;;;-4.66;100.00;101121.56;4989531;28;20054;-59
2022/11/20 03:31:40;;;;;;;26.10;17.50;;;;;;;-4.22;100.00;101204.34;4991513;28;20083;-59
2022/11/20 03:34:05;;;;;;;27.55;16.75;;;;;;;-4.61;100.00;101126.81;5009199;28;20398;-55
2022/11/20 03:36:31;;;;;;;27.77;18.02;;;;;;;-4.29;100.00;101185.28;4980587;28;20038;-57
2022/11/20 03:38:57;;;;;;;24.17;15.98;;;;;;;-4.71;100.00;101109.38;5010078;28;20473;-57
2022/11/20 03:41:27;;;;;;;27.45;16.55;;;;;;;-4.32;100.00;101181.75;4974628;28;20042;-54
2022/11/20 03:43:57;;;;;;;26.42;17.13;;;;;;;-4.76;100.00;101098.94;4982995;28;20034;-56
2022/11/20 03:46:23;;;;;;;23.80;16.65;;;;;;;-4.37;100.00;101155.03;5010090;28;20033;-60
2022/11/20 03:48:49;;;;;;;26.05;16.25;;;;;;;-4.52;100.00;101128.84;5008686;28;20041;-54
2022/11/20 03:51:19;;;;;;;24.98;17.27;;;;;;;-4.73;100.00;101090.50;5009808;28;20129;-56
2022/11/20 03:53:46;;;;;;;27.77;17.38;;;;;;;-4.32;100.00;101174.91;5009169;28;20061;-53
2022/11/20 03:56:13;;;;;;;28.35;17.85;;;;;;;-4.69;100.00;101108.59;5001101;28;20079;-56
2022/11/20 03:58:39;;;;;;;25.50;15.80;;;;;;;-4.27;100.00;101172.50;4990485;28;20031;-55
2022/11/20 04:01:26;;;;;;;27.05;16.88;;;;;;;-4.25;100.00;101164.00;4990583;28;20072;-52
2022/11/20 04:03:52;;;;;;;26.52;16.98;;;;;;;-4.28;100.00;101169.03;4990306;28;20121;-58
2022/11/20 04:06:21;;;;;;;25.85;17.70;;;;;;;-4.29;100.00;101151.03;4989139;28;20039;-54
2022/11/20 04:08:46;;;;;;;25.23;16.70;;;;;;;-4.72;100.00;101071.69;5003601;28;20030;-56
2022/11/20 04:11:16;;;;;;;25.20;16.33;;;;;;;-4.37;100.00;101130.19;5009848;28;20402;-58
2022/11/20 04:13:45;;;;;;;25.77;16.60;;;;;;;-4.39;100.00;101141.25;5009897;28;20034;-50
2022/11/20 04:16:10;;;;;;;26.63;17.60;;;;;;;-4.40;100.00;101124.97;5008294;28;20553;-56
2022/11/20 04:18:36;;;;;;;26.58;17.52;;;;;;;-4.46;100.00;101122.19;4997458;28;20039;-55
2022/11/20 04:21:02;;;;;;;28.10;17.83;;;;;;;-4.72;100.00;101067.41;4990119;28;20125;-54
2022/11/20 04:23:27;;;;;;;31.45;17.00;;;;;;;-4.81;100.00;101051.72;4989981;28;20085;-55
2022/11/20 04:25:53;;;;;;;26.58;18.08;;;;;;;-4.51;100.00;101110.91;4991178;28;20490;-55
2022/11/20 04:28:18;;;;;;;27.70;17.10;;;;;;;-4.81;100.00;101064.56;5009502;28;20036;-55
2022/11/20 04:30:43;;;;;;;33.05;19.13;;;;;;;-4.42;100.00;101121.47;5009397;28;20054;-54
2022/11/20 04:33:09;;;;;;;27.58;17.67;;;;;;;-4.46;100.00;101111.03;5009555;28;20086;-57
2022/11/20 04:35:35;;;;;;;24.85;15.95;;;;;;;-4.65;100.00;101102.75;5009623;28;20392;-52
2022/11/20 04:38:00;;;;;;;26.58;16.48;;;;;;;-4.57;100.00;101108.13;5007704;28;20037;-52
2022/11/20 04:40:26;;;;;;;26.35;16.48;;;;;;;-4.82;100.00;101057.69;5009555;28;20030;-56
2022/11/20 04:42:51;;;;;;;26.63;17.42;;;;;;;-4.46;100.00;101114.50;5007866;28;20397;-54
2022/11/20 04:45:16;;;;;;;29.77;17.45;;;;;;;-4.47;100.00;101120.47;5009495;28;20046;-58
2022/11/20 04:47:42;;;;;;;26.13;16.38;;;;;;;-4.36;100.00;101123.38;5008935;28;20492;-51
2022/11/20 04:50:07;;;;;;;30.52;17.73;;;;;;;-4.38;100.00;101128.47;5008153;28;20030;-56
2022/11/20 04:52:32;;;;;;;31.67;17.77;;;;;;;-4.37;100.00;101126.75;5007865;28;20046;-54
2022/11/20 04:54:58;;;;;;;27.02;17.15;;;;;;;-4.48;100.00;101105.88;4997835;28;20099;-51
2022/11/20 04:57:23;;;;;;;29.10;17.65;;;;;;;-4.76;100.00;101045.03;4989717;28;20390;-59
2022/11/20 04:59:48;;;;;;;28.02;18.20;;;;;;;-4.30;100.00;101128.72;4989869;28;20555;-59
2022/11/20 05:02:14;;;;;;;27.10;17.75;;;;;;;-4.27;100.00;101115.97;4989631;28;20478;-58
2022/11/20 05:04:39;;;;;;;27.90;17.67;;;;;;;-4.30;100.00;101114.16;4989740;28;20042;-58
2022/11/20 05:07:04;;;;;;;30.75;18.65;;;;;;;-4.31;100.00;101119.25;4989760;28;20037;-54
2022/11/20 05:09:30;;;;;;;28.88;17.27;;;;;;;-4.69;100.00;101053.81;4989569;28;20033;-52
2022/11/20 05:11:55;;;;;;;28.05;17.95;;;;;;;-4.69;100.00;101058.94;4988620;28;20034;-55
2022/11/20 05:14:20;;;;;;;27.40;17.98;;;;;;;-4.31;100.00;101135.53;4989679;28;20140;-56
2022/11/20 05:16:46;;;;;;;30.83;18.63;;;;;;;-4.75;100.00;101053.59;4988422;28;20065;-57
2022/11/20 05:19:11;;;;;;;27.25;16.95;;;;;;;-4.72;100.00;101067.41;4988495;28;20510;-57
2022/11/20 05:21:36;;;;;;;30.98;17.73;;;;;;;-4.39;100.00;101129.28;4989566;28;20034;-56
2022/11/20 05:24:02;;;;;;;28.60;17.63;;;;;;;-4.39;100.00;101137.00;4989562;28;20038;-54
2022/11/20 05:26:27;;;;;;;28.40;18.55;;;;;;;-4.74;100.00;101078.47;4988105;28;20355;-58
2022/11/20 05:28:52;;;;;;;27.23;17.70;;;;;;;-4.37;100.00;101127.63;4998494;28;20141;-54
2022/11/20 05:31:21;;;;;;;29.13;18.45;;;;;;;-4.46;100.00;101109.34;5009093;28;20129;-53
2022/11/20 05:33:46;;;;;;;27.10;18.02;;;;;;;-4.79;100.00;101057.78;5008817;28;20045;-57
2022/11/20 05:36:13;;;;;;;31.85;18.90;;;;;;;-4.39;100.00;101123.28;5009338;28;20037;-56
2022/11/20 05:38:38;;;;;;;27.15;18.58;;;;;;;-4.35;100.00;101127.69;5011837;28;20637;-56
2022/11/20 05:41:14;;;;;;;27.95;18.00;;;;;;;-4.73;100.00;101037.41;5012415;28;20038;-52
2022/11/20 05:43:41;;;;;;;29.45;17.52;;;;;;;-4.73;100.00;101029.72;5011188;28;20022;-56
2022/11/20 05:46:08;;;;;;;29.73;18.30;;;;;;;-4.26;100.00;101104.88;5010911;28;20026;-59
2022/11/20 05:48:34;;;;;;;28.92;18.33;;;;;;;-4.48;100.00;101057.06;5007182;28;20091;-58
2022/11/20 05:51:01;;;;;;;31.88;18.40;;;;;;;-4.52;100.00;101039.78;4992542;28;20121;-53
2022/11/20 05:53:26;;;;;;;31.20;19.23;;;;;;;-4.13;100.00;101115.56;4991515;28;20054;-56
2022/11/20 05:56:02;;;;;;;32.20;18.80;;;;;;;-4.51;100.00;101036.41;4991611;28;20041;-54
2022/11/20 05:58:28;;;;;;;35.03;19.77;;;;;;;-4.08;100.00;101101.13;5001000;28;20133;-57
2022/11/20 06:00:54;;;;;;;31.33;19.33;;;;;;;-4.42;100.00;101031.56;5011927;28;20118;-56
2022/11/20 06:03:19;;;;;;;31.45;19.70;;;;;;;-4.04;100.00;101100.41;5010398;28;20071;-52
2022/11/20 06:05:45;;;;;;;28.75;18.55;;;;;;;-4.17;100.00;101067.44;5011941;28;20057;-53
2022/11/20 06:08:10;;;;;;;35.45;20.00;;;;;;;-4.07;100.00;101081.44;4990821;28;20485;-54
2022/11/20 06:10:35;;;;;;;33.90;20.33;;;;;;;-4.51;100.00;101010.72;5005224;28;20038;-52
2022/11/20 06:13:00;;;;;;;35.28;20.35;;;;;;;-4.50;100.00;101009.03;5008259;28;20103;-55
2022/11/20 06:15:26;;;;;;;29.63;19.70;;;;;;;-4.06;100.00;101078.06;4993383;28;20402;-57
2022/11/20 06:17:55;;;;;;;31.30;19.17;;;;;;;-4.27;100.00;101036.28;4996873;28;20053;-58
2022/11/20 06:20:21;;;;;;;32.40;19.50;;;;;;;-4.36;100.00;101006.06;5011104;28;20521;-55
2022/11/20 06:22:46;;;;;;;31.10;20.20;;;;;;;-4.71;100.00;100942.47;5011657;28;20113;-53
2022/11/20 06:25:12;;;;;;;33.03;20.48;;;;;;;-3.92;100.00;101070.75;4996495;28;20483;-51
2022/11/20 06:27:37;;;;;;;36.10;21.55;;;;;;;-4.30;100.00;100995.06;4991945;28;20039;-56
2022/11/20 06:30:03;;;;;;;33.63;20.50;;;;;;;-4.32;100.00;100986.47;5002498;28;20046;-58
2022/11/20 06:32:29;;;;;;;30.63;19.45;;;;;;;-3.89;100.00;101063.13;4993708;28;20041;-54
2022/11/20 06:34:54;;;;;;;33.35;19.52;;;;;;;-5.30;100.00;100823.44;5011465;28;20046;-56
2022/11/20 06:37:19;;;;;;;35.63;21.88;;;;;;;-4.22;100.00;100986.75;5009691;28;20053;-57
2022/11/20 06:39:45;;;;;;;34.15;21.35;;;;;;;-3.73;100.00;101060.16;5010297;28;20065;-58
2022/11/20 06:42:10;;;;;;;33.63;20.50;;;;;;;-4.12;100.00;100983.66;5011600;28;20038;-54
2022/11/20 06:44:35;;;;;;;35.80;21.08;;;;;;;-3.63;100.00;101064.75;5010055;28;20030;-54
2022/11/20 06:47:01;;;;;;;32.72;20.63;;;;;;;-4.00;100.00;100989.09;5001278;28;20039;-52
2022/11/20 06:49:26;;;;;;;32.70;19.60;;;;;;;-3.52;100.00;101053.03;4990274;28;20045;-57
2022/11/20 06:51:51;;;;;;;35.67;21.75;;;;;;;-3.62;100.00;101026.19;4991708;28;20160;-54
2022/11/20 06:54:16;;;;;;;30.40;19.83;;;;;;;-3.41;100.00;101059.34;4995008;28;20046;-58
2022/11/20 06:56:42;;;;;;;33.13;20.23;;;;;;;-3.35;100.00;101038.03;4991497;28;20086;-57
2022/11/20 06:59:07;;;;;;;32.83;21.08;;;;;;;-3.35;100.00;101041.50;4991680;28;20083;-56
2022/11/20 07:01:33;;;;;;;31.83;19.98;;;;;;;-3.67;100.00;100972.88;4991538;28;20054;-57
2022/11/20 07:03:58;;;;;;;31.38;20.70;;;;;;;-3.55;100.00;100963.78;4990938;28;20050;-54
2022/11/20 07:06:24;;;;;;;30.75;20.27;;;;;;;-3.07;100.00;101041.41;4991853;28;20030;-55
2022/11/20 07:08:52;;;;;;;34.55;19.88;;;;;;;-3.00;100.00;101044.97;4991661;28;20030;-58
2022/11/20 07:11:17;;;;;;;36.97;22.38;;;;;;;-3.24;100.00;101006.59;4991555;28;20038;-56
2022/11/20 07:13:43;;;;;;;34.50;20.05;;;;;;;-2.91;100.00;101047.78;4990401;28;20039;-58
2022/11/20 07:16:08;;;;;;;33.60;20.73;;;;;;;-2.93;100.00;101039.16;4992248;28;20040;-55
2022/11/20 07:18:34;;;;;;;29.55;20.17;;;;;;;-3.14;100.00;100995.72;5009295;28;20531;-59
2022/11/20 07:21:03;;;;;;;31.90;20.80;;;;;;;-2.90;100.00;101023.78;5010861;28;20030;-53
2022/11/20 07:23:29;;;;;;;32.35;20.35;;;;;;;-2.70;100.00;101045.75;5009476;28;20060;-57
2022/11/20 07:25:54;;;;;;;29.58;20.80;;;;;;;-2.99;100.00;100987.50;5009304;28;20550;-58
2022/11/20 07:28:19;;;;;;;31.23;19.45;;;;;;;-2.61;100.00;101045.97;5008775;28;20034;-53
2022/11/20 07:30:52;;;;;;;28.58;19.58;;;;;;;-2.56;100.00;101056.38;5008717;28;20046;-61
2022/11/20 07:33:18;;;;;;;30.10;19.70;;;;;;;-2.53;100.00;101046.16;4989773;28;20635;-55
2022/11/20 07:35:43;;;;;;;30.05;20.45;;;;;;;-3.70;100.00;100828.75;5004316;28;20076;-58
2022/11/20 07:38:09;;;;;;;31.13;20.42;;;;;;;-2.90;100.00;100961.97;4996445;28;20483;-59
2022/11/20 07:40:34;;;;;;;30.98;20.70;;;;;;;-2.60;100.00;100996.19;4989490;28;20072;-59
2022/11/20 07:42:59;;;;;;;29.50;20.08;;;;;;;-2.34;100.00;101038.91;4988889;28;20529;-56
2022/11/20 07:45:25;;;;;;;30.75;21.23;;;;;;;-2.77;100.00;100960.56;4990867;28;20483;-53
2022/11/20 07:47:50;;;;;;;30.98;20.90;;;;;;;-2.66;100.00;100977.13;4990722;28;20039;-57
2022/11/20 07:50:16;;;;;;;33.17;21.13;;;;;;;-2.61;100.00;100971.25;4990925;28;20082;-60
2022/11/20 07:52:42;;;;;;;31.05;20.02;;;;;;;-2.15;100.00;101070.22;4990786;28;20533;-57
2022/11/20 07:55:08;;;;;;;27.83;19.45;;;;;;;-2.12;100.00;101041.94;4990279;28;20037;-58
2022/11/20 07:57:33;;;;;;;31.13;20.95;;;;;;;-2.03;100.00;101055.91;5000724;28;20058;-58
2022/11/20 07:59:59;;;;;;;31.13;21.00;;;;;;;-2.01;100.00;101040.44;4993093;28;20042;-61
2022/11/20 08:02:24;;;;;;;32.42;20.55;;;;;;;-2.33;100.00;100980.44;5000358;28;20046;-57
2022/11/20 08:04:49;;;;;;;32.60;20.15;;;;;;;-1.89;100.00;101053.59;5010934;28;20037;-58
2022/11/20 08:07:14;;;;;;;35.03;21.80;;;;;;;-1.84;100.00;101050.28;5008504;28;20046;-58
2022/11/20 08:09:40;;;;;;;28.75;20.02;;;;;;;-2.28;100.00;100968.53;5005231;28;20034;-57
2022/11/20 08:14:49;;;;;;;31.38;21.08;;;;;;;-1.77;100.00;101040.97;5009918;28;20120;-58
2022/11/20 08:17:14;;;;;;;28.80;19.83;;;;;;;-1.69;100.00;101030.81;5008920;28;20055;-55
2022/11/20 08:19:40;;;;;;;31.25;20.33;;;;;;;-1.65;100.00;101024.84;5008854;28;20482;-55
2022/11/20 08:22:05;;;;;;;31.80;21.48;;;;;;;-1.61;100.00;101031.81;5008015;28;20041;-55
2022/11/20 08:24:30;;;;;;;30.63;20.67;;;;;;;-1.99;100.00;100956.25;5004420;28;20041;-54
2022/11/20 08:26:59;;;;;;;30.60;20.55;;;;;;;-1.51;100.00;101032.03;4990190;28;20103;-54
2022/11/20 08:29:26;;;;;;;26.63;19.02;;;;;;;-1.55;100.00;101008.72;4989934;28;20054;-55
2022/11/20 08:31:52;;;;;;;27.13;18.77;;;;;;;-1.82;100.00;100960.03;4990478;28;20374;-57
2022/11/20 08:34:17;;;;;;;27.33;19.73;;;;;;;-1.92;100.00;100940.91;5008071;28;20042;-56
2022/11/20 08:36:42;;;;;;;26.98;20.25;;;;;;;-1.48;100.00;101006.28;4992197;28;20082;-59
2022/11/20 08:39:11;;;;;;;27.73;20.27;;;;;;;-1.36;100.00;101022.00;5009534;28;20152;-56
2022/11/20 08:41:37;;;;;;;26.67;19.08;;;;;;;-1.28;100.00;101024.69;5008352;28;20466;-61
2022/11/20 08:44:04;;;;;;;27.17;18.98;;;;;;;-1.36;100.00;100995.28;4990526;28;20053;-56
2022/11/20 08:46:36;;;;;;;30.95;19.77;;;;;;;-1.17;100.00;101033.53;4990063;28;20066;-54
2022/11/20 08:49:01;;;;;;;30.33;19.77;;;;;;;-1.08;100.00;101036.25;4990044;28;20031;-59
2022/11/20 08:51:27;;;;;;;25.60;18.58;;;;;;;-1.42;100.00;100948.72;4988583;28;20034;-56
2022/11/20 08:53:52;;;;;;;26.20;19.38;;;;;;;-1.17;100.00;100979.31;4991786;28;20050;-56
2022/11/20 08:56:18;;;;;;;25.92;19.08;;;;;;;-0.93;100.00;101020.16;5002791;28;20060;-54
2022/11/20 08:58:43;;;;;;;26.05;18.55;;;;;;;-0.86;100.00;101019.41;4990041;28;20030;-59
2022/11/20 09:01:09;;;;;;;25.98;18.45;;;;;;;-0.95;100.00;100993.44;4976331;28;20079;-53
2022/11/20 09:03:34;;;;;;;26.40;19.42;;;;;;;-0.85;100.00;101009.13;5007561;28;20055;-59
2022/11/20 09:06:01;;;;;;;25.27;18.73;;;;;;;-1.38;100.00;100904.03;5009919;28;20402;-62
2022/11/20 09:08:27;;;;;;;28.13;18.85;;;;;;;-0.61;100.00;101032.75;5009114;28;20041;-55
2022/11/20 09:10:54;;;;;;;26.92;19.10;;;;;;;-0.57;100.00;101021.63;5004781;28;20030;-59
2022/11/20 09:13:23;;;;;;;27.40;19.70;;;;;;;-0.63;100.00;100994.81;5008952;28;20394;-58
2022/11/20 09:16:03;;;;;;;25.63;18.33;;;;;;;-0.42;100.00;101004.59;4991778;28;20034;-52
2022/11/20 09:18:28;;;;;;;24.58;19.50;;;;;;;-0.45;100.00;100994.22;5008735;28;20090;-57
2022/11/20 09:21:01;;;;;;;26.33;17.98;;;;;;;-0.42;100.00;100986.50;5001966;28;20038;-54
2022/11/20 09:23:27;;;;;;;23.35;18.70;;;;;;;-1.01;100.00;100870.19;4989649;28;20034;-57
2022/11/20 09:25:55;;;;;;;26.70;18.73;;;;;;;-0.64;100.00;100918.09;4988239;28;20498;-56
2022/11/20 09:28:21;;;;;;;26.63;19.67;;;;;;;-0.13;100.00;100982.59;4988237;28;20114;-66
2022/11/20 09:30:46;;;;;;;24.83;18.17;;;;;;;-0.21;100.00;100955.75;4995245;28;20054;-68
2022/11/20 09:33:12;;;;;;;26.95;19.05;;;;;;;0.04;100.00;100981.09;5004564;28;20169;-68
2022/11/20 09:35:37;;;;;;;26.52;20.13;;;;;;;0.10;100.00;100970.81;5008715;28;20036;-65
2022/11/20 09:38:06;;;;;;;24.15;19.10;;;;;;;0.15;100.00;100966.53;5008859;28;20038;-67
2022/11/20 09:40:32;;;;;;;26.27;20.00;;;;;;;0.32;100.00;100975.38;5009007;28;20030;-66
2022/11/20 09:43:05;;;;;;;24.70;18.42;;;;;;;0.33;100.00;100943.47;5001924;28;20041;-66
2022/11/20 09:46:05;;;;;;;22.92;17.15;;;;;;;0.37;100.00;100944.38;4987849;28;20134;-66
2022/11/20 09:48:39;;;;;;;24.90;18.83;;;;;;;0.15;100.00;100895.78;4987803;28;20168;-66
2022/11/20 09:51:11;;;;;;;24.40;17.52;;;;;;;0.57;100.00;100968.75;4990164;28;20053;-69
2022/11/20 09:53:48;;;;;;;26.17;19.88;;;;;;;0.57;100.00;100961.84;5004671;28;20045;-66
2022/11/20 09:56:14;;;;;;;29.23;21.33;;;;;;;0.18;100.00;100894.09;5008569;28;20038;-66
2022/11/20 09:58:45;;;;;;;25.10;18.38;;;;;;;0.25;100.00;100897.63;5048197;28;20082;-67
2022/11/20 10:01:15;;;;;;;25.10;18.17;;;;;;;0.66;100.00;100953.28;5006135;28;20030;-71
2022/11/20 10:04:00;;;;;;;26.95;18.88;;;;;;;0.62;100.00;100924.72;5006585;28;20037;-67
2022/11/20 10:06:47;;;;;;;24.13;19.20;;;;;;;0.74;100.00;100937.81;5007780;28;20026;-66
2022/11/20 10:09:12;;;;;;;24.88;19.30;;;;;;;0.76;100.00;100936.13;5006758;28;20110;-70
2022/11/20 10:11:59;;;;;;;28.35;20.95;;;;;;;0.81;100.00;100927.53;5009663;28;20050;-70
2022/11/20 10:14:38;;;;;;;28.05;20.65;;;;;;;0.68;100.00;100889.41;5010806;28;20056;-66
2022/11/20 10:17:06;;;;;;;22.58;18.40;;;;;;;0.81;100.00;100906.78;5009689;28;20048;-71
2022/11/20 10:19:56;;;;;;;26.40;19.30;;;;;;;0.68;100.00;100875.56;5008556;28;20113;-66
2022/11/20 10:22:49;;;;;;;24.48;18.48;;;;;;;0.50;100.00;100840.03;5007702;28;20036;-69
2022/11/20 10:25:16;;;;;;;27.35;19.67;;;;;;;0.13;100.00;100765.50;5010509;28;20029;-68
2022/11/20 10:28:00;;;;;;;25.40;19.65;;;;;;;0.82;100.00;100882.59;4993805;28;20027;-68
2022/11/20 10:30:25;;;;;;;27.58;19.38;;;;;;;0.75;100.00;100873.06;4992098;28;20053;-72
2022/11/20 10:32:58;;;;;;;25.73;20.52;;;;;;;0.39;100.00;100785.56;4992149;28;20398;-70
2022/11/20 10:35:28;;;;;;;25.80;19.63;;;;;;;0.86;100.00;100862.75;4990963;28;20036;-67
2022/11/20 10:38:00;;;;;;;28.58;21.45;;;;;;;0.87;100.00;100836.00;4990654;28;20482;-69
2022/11/20 10:40:36;;;;;;;26.10;19.95;;;;;;;1.05;100.00;100847.34;4990850;28;20037;-69
2022/11/20 10:43:32;;;;;;;29.30;21.60;;;;;;;1.07;100.00;100830.09;4993668;28;20389;-67
2022/11/20 10:46:01;;;;;;;30.73;21.88;;;;;;;1.07;100.00;100824.03;5011407;28;20040;-69
2022/11/20 10:48:28;;;;;;;27.83;20.70;;;;;;;1.06;100.00;100827.47;5010043;28;20065;-68
2022/11/20 10:51:02;;;;;;;30.35;22.15;;;;;;;1.12;100.00;100830.09;5009963;28;20037;-65
2022/11/20 10:53:52;;;;;;;29.85;22.13;;;;;;;0.87;100.00;100776.41;5011063;28;20034;-66
2022/11/20 10:56:38;;;;;;;31.80;22.95;;;;;;;0.72;100.00;100742.63;5009869;28;20478;-67
2022/11/20 10:59:35;;;;;;;31.20;22.65;;;;;;;1.17;100.00;100818.03;5010980;28;20041;-66
2022/11/20 11:02:00;;;;;;;31.20;22.05;;;;;;;1.16;100.00;100816.31;5010267;28;20048;-65
2022/11/20 11:04:25;;;;;;;34.53;24.10;;;;;;;1.18;100.00;100819.78;5011103;28;20037;-66
2022/11/20 11:06:51;;;;;;;33.60;25.10;;;;;;;1.23;100.00;100807.69;5010903;28;20026;-66
2022/11/20 11:09:21;;;;;;;34.92;23.83;;;;;;;0.94;100.00;100747.06;5009910;28;20030;-66